Time;durP1;ratioP1;P1;durP2;ratioP2;P2;SDS_P1;SDS_P2;PMS_P1;PMS_P2;Temp;Humidity;BMP_temperature;BMP_pressure;BME280_temperature;BME280_humidity;BME280_pressure;Samples;Min_cycle;Max_cycle;Signal;HPM_P1;HPM_P2
2022/11/13 00:01:56;;;;;;;8.70;7.53;;;4.80;99.90;;;;;;4993058;28;20129;-77
2022/11/13 00:04:22;;;;;;;11.55;9.30;;;4.80;99.90;;;;;;4978770;28;20128;-77
2022/11/13 00:06:48;;;;;;;15.38;11.15;;;4.80;99.90;;;;;;4993738;28;20453;-77
2022/11/13 00:09:14;;;;;;;11.20;9.55;;;4.80;99.90;;;;;;4994061;28;20034;-77
2022/11/13 00:11:40;;;;;;;13.52;10.50;;;4.80;99.90;;;;;;4995396;28;20041;-76
2022/11/13 00:14:06;;;;;;;11.18;9.88;;;4.90;99.90;;;;;;4995526;28;20038;-78
2022/11/13 00:16:31;;;;;;;12.80;10.07;;;4.90;99.90;;;;;;4977581;28;20038;-77
2022/11/13 00:18:57;;;;;;;13.02;10.45;;;4.80;99.90;;;;;;4994322;28;20118;-77
2022/11/13 00:21:24;;;;;;;14.10;10.98;;;4.90;99.90;;;;;;4995293;28;20042;-77
2022/11/13 00:23:50;;;;;;;14.23;11.20;;;5.00;99.90;;;;;;4993146;28;20034;-78
2022/11/13 00:26:27;;;;;;;12.63;10.80;;;5.00;99.90;;;;;;4994017;28;20050;-77
2022/11/13 00:28:55;;;;;;;12.50;10.32;;;5.00;99.90;;;;;;4994990;28;20103;-77
2022/11/13 00:31:21;;;;;;;17.85;12.43;;;5.00;99.90;;;;;;4994052;28;20446;-77
2022/11/13 00:33:47;;;;;;;21.13;15.60;;;5.10;99.90;;;;;;4995243;28;20404;-77
2022/11/13 00:36:18;;;;;;;23.88;16.50;;;5.10;99.90;;;;;;4994315;28;20046;-77
2022/11/13 00:38:44;;;;;;;22.33;16.33;;;5.20;99.90;;;;;;4993548;28;20502;-77
2022/11/13 00:41:10;;;;;;;21.10;16.98;;;5.20;99.90;;;;;;4993806;28;20091;-76
2022/11/13 00:43:36;;;;;;;22.63;16.35;;;5.20;99.90;;;;;;4994348;28;20045;-78
2022/11/13 00:46:02;;;;;;;22.15;16.50;;;5.30;99.90;;;;;;4994122;28;20514;-77
2022/11/13 00:48:27;;;;;;;21.98;16.27;;;5.30;99.90;;;;;;4978270;28;20117;-77
2022/11/13 00:50:53;;;;;;;23.17;17.45;;;5.40;99.90;;;;;;4994674;28;20042;-78
2022/11/13 00:53:18;;;;;;;25.52;18.13;;;5.40;99.90;;;;;;4990744;28;20046;-77
2022/11/13 00:55:45;;;;;;;28.08;18.88;;;5.40;99.90;;;;;;4990451;28;20046;-77
2022/11/13 00:58:11;;;;;;;29.50;20.73;;;5.40;99.90;;;;;;4977185;28;20115;-77
2022/11/13 01:00:38;;;;;;;25.33;19.02;;;5.50;99.90;;;;;;4993461;28;20086;-77
2022/11/13 01:03:04;;;;;;;26.50;19.52;;;5.50;99.90;;;;;;4977209;28;20045;-77
2022/11/13 01:05:29;;;;;;;26.00;18.90;;;5.50;99.90;;;;;;4985760;28;20234;-77
2022/11/13 01:07:56;;;;;;;25.65;18.65;;;5.60;99.90;;;;;;4993832;28;20034;-77
2022/11/13 01:10:22;;;;;;;26.58;18.85;;;5.60;99.90;;;;;;4993103;28;20065;-77
2022/11/13 01:12:47;;;;;;;26.02;19.35;;;5.60;99.90;;;;;;4993342;28;20219;-78
2022/11/13 01:15:13;;;;;;;26.50;19.67;;;5.60;99.90;;;;;;4975735;28;20469;-77
2022/11/13 01:17:38;;;;;;;28.27;18.92;;;5.60;99.90;;;;;;4992255;28;20045;-77
2022/11/13 01:20:05;;;;;;;22.83;17.48;;;5.70;99.90;;;;;;4993179;28;20526;-77
2022/11/13 01:22:31;;;;;;;22.25;17.20;;;5.70;99.90;;;;;;4992017;28;20046;-76
2022/11/13 01:24:57;;;;;;;25.17;18.58;;;5.70;99.90;;;;;;4988466;28;20037;-76
2022/11/13 01:27:23;;;;;;;27.67;19.35;;;5.70;99.90;;;;;;4992627;28;20052;-77
2022/11/13 01:29:48;;;;;;;24.88;17.95;;;5.70;99.90;;;;;;4993709;28;20029;-77
2022/11/13 01:32:14;;;;;;;27.77;19.20;;;5.70;99.90;;;;;;4989424;28;20045;-77
2022/11/13 01:34:39;;;;;;;26.60;19.90;;;5.70;99.90;;;;;;4992510;28;20045;-76
2022/11/13 01:37:05;;;;;;;29.27;21.20;;;5.80;99.90;;;;;;4993778;28;20041;-77
2022/11/13 01:39:30;;;;;;;30.15;21.15;;;5.70;99.90;;;;;;4993031;28;20045;-77
2022/11/13 01:41:56;;;;;;;30.52;22.48;;;5.80;99.90;;;;;;4994046;28;20042;-77
2022/11/13 01:44:22;;;;;;;31.17;22.67;;;5.90;99.90;;;;;;4993222;28;20045;-76
2022/11/13 01:46:50;;;;;;;33.58;21.67;;;5.90;99.90;;;;;;4993825;28;20551;-77
2022/11/13 01:49:16;;;;;;;31.77;22.73;;;5.90;99.90;;;;;;4993258;28;20044;-76
2022/11/13 01:51:46;;;;;;;31.45;22.48;;;5.90;99.90;;;;;;4992335;28;20038;-76
2022/11/13 01:54:19;;;;;;;29.80;22.15;;;5.90;99.90;;;;;;4993760;28;20033;-77
2022/11/13 01:56:45;;;;;;;30.87;23.67;;;6.00;99.90;;;;;;4992888;28;20361;-77
2022/11/13 01:59:16;;;;;;;32.88;22.13;;;6.00;99.90;;;;;;4993414;28;20041;-78
2022/11/13 02:01:41;;;;;;;29.15;22.27;;;6.00;99.90;;;;;;4992839;28;20045;-77
2022/11/13 02:04:07;;;;;;;28.42;21.13;;;6.00;99.90;;;;;;4993836;28;20053;-77
2022/11/13 02:06:48;;;;;;;27.70;21.83;;;6.10;99.90;;;;;;4993545;28;20053;-76
2022/11/13 02:09:16;;;;;;;30.73;21.65;;;6.10;99.90;;;;;;4991298;28;20121;-78
2022/11/13 02:11:42;;;;;;;27.08;20.60;;;6.10;99.90;;;;;;4991998;28;20496;-76
2022/11/13 02:14:10;;;;;;;27.70;21.17;;;6.10;99.90;;;;;;4992660;28;20103;-77
2022/11/13 02:16:38;;;;;;;28.33;20.75;;;6.10;99.90;;;;;;4991479;28;20121;-78
2022/11/13 02:19:11;;;;;;;28.65;20.35;;;6.10;99.90;;;;;;4993503;28;20411;-77
2022/11/13 02:22:03;;;;;;;28.15;20.70;;;6.20;99.90;;;;;;4992537;28;20084;-76
2022/11/13 02:24:35;;;;;;;24.83;19.35;;;6.20;99.90;;;;;;4977306;28;20072;-77
2022/11/13 02:27:04;;;;;;;26.80;20.00;;;6.20;99.90;;;;;;4990704;28;20042;-77
2022/11/13 02:29:30;;;;;;;26.38;19.27;;;6.20;99.90;;;;;;4993196;28;20049;-77
2022/11/13 02:31:56;;;;;;;26.23;19.98;;;6.20;99.90;;;;;;4992806;28;20037;-77
2022/11/13 02:34:21;;;;;;;27.25;19.42;;;6.30;99.90;;;;;;4993582;28;20053;-77
2022/11/13 02:36:47;;;;;;;28.05;20.02;;;6.20;99.90;;;;;;4993558;28;20046;-77
2022/11/13 02:39:13;;;;;;;27.25;19.27;;;6.20;99.90;;;;;;4989638;28;20048;-77
2022/11/13 02:41:39;;;;;;;26.45;19.00;;;6.20;99.90;;;;;;4991764;28;20038;-77
2022/11/13 02:44:06;;;;;;;25.90;19.92;;;6.20;99.90;;;;;;4991014;28;20503;-78
2022/11/13 02:46:33;;;;;;;25.67;19.58;;;6.20;99.90;;;;;;4969373;28;20092;-77
2022/11/13 02:48:59;;;;;;;26.73;19.35;;;6.10;99.90;;;;;;4992900;28;20577;-77
2022/11/13 02:51:25;;;;;;;24.15;18.92;;;6.10;99.90;;;;;;4991481;28;20133;-78
2022/11/13 02:53:50;;;;;;;26.55;18.77;;;6.00;99.90;;;;;;4991514;28;20103;-77
2022/11/13 02:56:16;;;;;;;25.60;19.30;;;6.00;99.90;;;;;;4975925;28;20503;-77
2022/11/13 02:58:41;;;;;;;25.02;18.80;;;6.00;99.90;;;;;;4992934;28;20496;-77
2022/11/13 03:01:07;;;;;;;25.35;18.23;;;6.00;99.90;;;;;;4991530;28;20038;-77
2022/11/13 03:03:32;;;;;;;23.10;16.98;;;5.90;99.90;;;;;;4993153;28;20120;-77
2022/11/13 03:05:58;;;;;;;23.40;17.67;;;6.00;99.90;;;;;;4995137;28;20042;-77
2022/11/13 03:08:24;;;;;;;24.60;17.65;;;5.90;99.90;;;;;;4995193;28;20056;-77
2022/11/13 03:10:52;;;;;;;24.45;17.25;;;5.90;99.90;;;;;;4996219;28;20560;-77
2022/11/13 03:13:18;;;;;;;29.10;18.58;;;5.90;99.90;;;;;;4994136;28;20051;-77
2022/11/13 03:15:43;;;;;;;23.48;17.92;;;5.90;99.90;;;;;;4996815;28;20048;-77
2022/11/13 03:18:10;;;;;;;27.65;17.60;;;5.90;99.90;;;;;;4994148;28;20049;-77
2022/11/13 03:20:38;;;;;;;23.48;16.92;;;5.90;99.90;;;;;;4996294;28;20503;-77
2022/11/13 03:23:04;;;;;;;23.33;18.90;;;5.90;99.90;;;;;;4992959;28;20563;-78
2022/11/13 03:25:30;;;;;;;22.98;17.13;;;5.90;99.90;;;;;;4996209;28;20034;-78
2022/11/13 03:27:55;;;;;;;24.70;18.05;;;5.80;99.90;;;;;;4996428;28;20443;-76
2022/11/13 03:30:21;;;;;;;23.23;18.30;;;5.80;99.90;;;;;;4994565;28;20034;-77
2022/11/13 03:32:46;;;;;;;25.23;17.85;;;5.80;99.90;;;;;;4994582;28;20029;-77
2022/11/13 03:35:12;;;;;;;21.48;16.17;;;5.80;99.90;;;;;;4996238;28;20100;-77
2022/11/13 03:37:38;;;;;;;21.10;16.40;;;5.80;99.90;;;;;;4995963;28;20076;-76
2022/11/13 03:40:04;;;;;;;23.52;16.45;;;5.80;99.90;;;;;;4996146;28;20138;-76
2022/11/13 03:42:30;;;;;;;21.90;16.33;;;5.80;99.90;;;;;;4993280;28;20045;-76
2022/11/13 03:44:55;;;;;;;22.95;16.42;;;5.80;99.90;;;;;;4995954;28;20518;-76
2022/11/13 03:47:21;;;;;;;22.30;17.15;;;5.80;99.90;;;;;;4996140;28;20030;-77
2022/11/13 03:49:46;;;;;;;25.20;17.33;;;5.70;99.90;;;;;;4995700;28;20038;-77
2022/11/13 03:52:12;;;;;;;24.88;19.02;;;5.80;99.90;;;;;;4994107;28;20037;-77
2022/11/13 03:54:37;;;;;;;23.83;18.17;;;5.80;99.90;;;;;;4995757;28;20410;-76
2022/11/13 03:57:03;;;;;;;31.42;19.75;;;5.80;99.90;;;;;;4994815;28;20498;-76
2022/11/13 03:59:28;;;;;;;25.48;19.60;;;5.80;99.90;;;;;;4994434;28;20042;-77
2022/11/13 04:01:55;;;;;;;28.17;19.45;;;5.90;99.90;;;;;;4995104;28;20048;-77
2022/11/13 04:04:21;;;;;;;26.30;20.13;;;5.80;99.90;;;;;;4995546;28;20679;-77
2022/11/13 04:06:46;;;;;;;27.48;19.50;;;5.90;99.90;;;;;;4993368;28;20045;-77
2022/11/13 04:09:12;;;;;;;28.65;19.25;;;5.90;99.90;;;;;;4995061;28;20041;-77
2022/11/13 04:11:37;;;;;;;24.42;19.20;;;5.90;99.90;;;;;;4995546;28;20045;-77
2022/11/13 04:14:03;;;;;;;28.77;20.38;;;5.90;99.90;;;;;;4992886;28;20033;-77
2022/11/13 04:16:28;;;;;;;25.08;19.15;;;5.90;99.90;;;;;;4994465;28;20068;-77
2022/11/13 04:18:54;;;;;;;25.05;19.67;;;5.90;99.90;;;;;;4993787;28;20046;-77
2022/11/13 04:21:19;;;;;;;25.27;19.45;;;5.90;99.90;;;;;;4994479;28;20128;-78
2022/11/13 04:23:45;;;;;;;23.88;17.95;;;5.90;99.90;;;;;;4995519;28;20044;-77
2022/11/13 04:26:10;;;;;;;27.48;19.17;;;5.90;99.90;;;;;;4995249;28;20122;-77
2022/11/13 04:28:36;;;;;;;24.35;17.88;;;5.90;99.90;;;;;;4992732;28;20459;-78
2022/11/13 04:31:01;;;;;;;24.73;18.05;;;5.80;99.90;;;;;;4993642;28;20104;-77
2022/11/13 04:33:27;;;;;;;28.55;18.50;;;5.80;99.90;;;;;;4994844;28;20034;-77
2022/11/13 04:35:52;;;;;;;24.95;18.58;;;5.90;99.90;;;;;;4995081;28;20472;-77
2022/11/13 04:38:18;;;;;;;22.15;17.35;;;5.80;99.90;;;;;;4993120;28;20510;-78
2022/11/13 04:40:43;;;;;;;26.65;18.70;;;5.80;99.90;;;;;;4994846;28;20087;-77
2022/11/13 04:43:09;;;;;;;24.45;18.20;;;5.80;99.90;;;;;;5011589;28;20034;-77
2022/11/13 04:45:35;;;;;;;25.60;18.13;;;5.80;99.90;;;;;;4994690;28;20597;-77
2022/11/13 04:48:01;;;;;;;22.58;17.42;;;5.80;99.90;;;;;;4992789;28;20034;-78
2022/11/13 04:50:26;;;;;;;22.40;17.38;;;5.80;99.90;;;;;;4992683;28;20034;-78
2022/11/13 04:52:52;;;;;;;22.38;18.08;;;5.90;99.90;;;;;;4993938;28;20041;-77
2022/11/13 04:55:17;;;;;;;25.55;18.35;;;5.80;99.90;;;;;;4994658;28;20042;-77
2022/11/13 04:57:43;;;;;;;21.38;17.10;;;5.80;99.90;;;;;;4993394;28;20064;-77
2022/11/13 05:00:09;;;;;;;23.63;16.42;;;5.80;99.90;;;;;;4994469;28;20041;-79
2022/11/13 05:02:35;;;;;;;21.92;16.58;;;5.70;99.90;;;;;;4993927;28;20355;-78
2022/11/13 05:05:01;;;;;;;22.02;16.70;;;5.70;99.90;;;;;;4993605;28;20116;-78
2022/11/13 05:07:26;;;;;;;25.63;17.08;;;5.70;99.90;;;;;;4994219;28;20088;-81
2022/11/13 05:09:53;;;;;;;20.33;16.15;;;5.70;99.90;;;;;;4993254;28;20505;-77
2022/11/13 05:12:19;;;;;;;23.27;16.65;;;5.60;99.90;;;;;;4992175;28;20516;-77
2022/11/13 05:14:44;;;;;;;19.45;15.65;;;5.60;99.90;;;;;;4994504;28;20442;-77
2022/11/13 05:17:11;;;;;;;22.65;15.93;;;5.60;99.90;;;;;;4994371;28;20057;-77
2022/11/13 05:19:37;;;;;;;23.88;16.33;;;5.60;99.90;;;;;;4994078;28;20534;-77
2022/11/13 05:22:04;;;;;;;21.17;15.85;;;5.60;99.90;;;;;;4991773;28;20076;-78
2022/11/13 05:24:29;;;;;;;24.00;16.77;;;5.60;99.90;;;;;;4992392;28;20042;-78
2022/11/13 05:26:55;;;;;;;22.42;16.58;;;5.60;99.90;;;;;;4977887;28;20092;-77
2022/11/13 05:29:21;;;;;;;21.98;16.83;;;5.60;99.90;;;;;;4993681;28;20030;-77
2022/11/13 05:31:47;;;;;;;23.30;16.67;;;5.60;99.90;;;;;;4993101;28;20029;-77
2022/11/13 05:34:13;;;;;;;23.35;15.82;;;5.50;99.90;;;;;;4993100;28;20088;-78
2022/11/13 05:36:38;;;;;;;24.95;17.30;;;5.50;99.90;;;;;;4993127;28;20075;-77
2022/11/13 05:39:04;;;;;;;21.73;16.88;;;5.50;99.90;;;;;;4993566;28;20073;-77
2022/11/13 05:41:30;;;;;;;23.63;17.77;;;5.60;99.90;;;;;;4978063;28;20072;-78
2022/11/13 05:43:57;;;;;;;22.70;16.70;;;5.60;99.90;;;;;;4992301;28;20068;-77
2022/11/13 05:46:28;;;;;;;24.33;17.45;;;5.50;99.90;;;;;;4992825;28;20042;-77
2022/11/13 05:48:56;;;;;;;20.15;16.05;;;5.50;99.90;;;;;;4993392;28;20044;-77
2022/11/13 05:51:24;;;;;;;21.70;16.90;;;5.50;99.90;;;;;;4992898;28;20034;-76
2022/11/13 05:53:51;;;;;;;25.45;16.48;;;5.50;99.90;;;;;;4974676;28;20038;-76
2022/11/13 05:56:26;;;;;;;23.48;16.02;;;5.50;99.90;;;;;;4993467;28;20048;-77
2022/11/13 05:58:53;;;;;;;21.70;15.88;;;5.50;99.90;;;;;;4975267;28;20038;-77
2022/11/13 06:01:20;;;;;;;23.08;16.65;;;5.40;99.90;;;;;;4990274;28;20041;-77
2022/11/13 06:03:46;;;;;;;22.27;16.80;;;5.40;99.90;;;;;;4993013;28;20038;-77
2022/11/13 06:06:14;;;;;;;24.08;17.75;;;5.40;99.90;;;;;;4993556;28;20046;-78
2022/11/13 06:08:40;;;;;;;19.85;15.07;;;5.40;99.90;;;;;;4993621;28;20038;-77
2022/11/13 06:11:11;;;;;;;20.95;15.30;;;5.30;99.90;;;;;;4990737;28;20042;-78
2022/11/13 06:13:38;;;;;;;21.35;15.35;;;5.30;99.90;;;;;;4992908;28;20460;-78
2022/11/13 06:16:06;;;;;;;23.05;15.52;;;5.20;99.90;;;;;;4975453;28;20038;-77
2022/11/13 06:18:32;;;;;;;24.73;16.25;;;5.20;99.90;;;;;;4991168;28;20050;-77
2022/11/13 06:21:07;;;;;;;23.48;15.32;;;5.10;99.90;;;;;;4990100;28;20041;-77
2022/11/13 06:23:34;;;;;;;20.55;14.88;;;5.10;99.90;;;;;;4987295;28;20038;-77
2022/11/13 06:26:02;;;;;;;18.75;15.05;;;5.10;99.90;;;;;;4988738;28;20038;-77
2022/11/13 06:28:27;;;;;;;20.67;15.13;;;5.10;99.90;;;;;;4990469;28;20086;-78
2022/11/13 06:30:53;;;;;;;20.02;14.85;;;5.00;99.90;;;;;;4988672;28;20052;-77
2022/11/13 06:33:19;;;;;;;19.05;14.75;;;5.00;99.90;;;;;;4991286;28;20121;-77
2022/11/13 06:35:44;;;;;;;20.00;15.43;;;4.90;99.90;;;;;;4993278;28;20044;-77
2022/11/13 06:38:10;;;;;;;17.55;14.02;;;4.90;99.90;;;;;;4993299;28;20096;-78
2022/11/13 06:40:37;;;;;;;19.35;14.30;;;4.90;99.90;;;;;;4988817;28;20100;-77
2022/11/13 06:43:03;;;;;;;22.38;15.38;;;4.90;99.90;;;;;;4991196;28;20428;-78
2022/11/13 06:45:28;;;;;;;19.92;15.00;;;4.80;99.90;;;;;;4996987;28;20073;-77
2022/11/13 06:47:54;;;;;;;20.35;14.07;;;4.90;99.90;;;;;;4996883;28;20522;-78
2022/11/13 06:50:20;;;;;;;19.67;14.02;;;4.80;99.90;;;;;;4997070;28;20412;-77
2022/11/13 06:52:45;;;;;;;19.27;13.82;;;4.80;99.90;;;;;;4980853;28;20107;-77
2022/11/13 06:55:11;;;;;;;19.83;14.32;;;4.70;99.90;;;;;;4995786;28;20495;-77
2022/11/13 06:57:36;;;;;;;18.17;13.95;;;4.70;99.90;;;;;;4996754;28;20049;-77
2022/11/13 07:00:03;;;;;;;16.58;13.20;;;4.60;99.90;;;;;;4996562;28;20038;-77
2022/11/13 07:02:29;;;;;;;16.67;12.20;;;4.60;99.90;;;;;;4995322;28;20092;-77
2022/11/13 07:04:54;;;;;;;17.10;13.10;;;4.50;99.90;;;;;;4991843;28;20129;-76
2022/11/13 07:07:20;;;;;;;18.73;12.93;;;4.50;99.90;;;;;;4982550;28;21725;-76
2022/11/13 07:09:45;;;;;;;15.80;12.80;;;4.40;99.90;;;;;;4995104;28;20033;-78
2022/11/13 07:12:11;;;;;;;16.00;12.45;;;4.40;99.90;;;;;;4997340;28;20046;-78
2022/11/13 07:14:36;;;;;;;17.15;12.70;;;4.40;99.90;;;;;;4994825;28;20125;-77
2022/11/13 07:17:02;;;;;;;17.40;13.23;;;4.40;99.90;;;;;;4995480;28;20095;-77
2022/11/13 07:19:27;;;;;;;17.80;13.82;;;4.40;99.90;;;;;;4996116;28;20046;-76
2022/11/13 07:21:53;;;;;;;19.60;14.05;;;4.40;99.90;;;;;;4989049;28;20045;-77
2022/11/13 07:24:19;;;;;;;17.65;14.13;;;4.50;99.90;;;;;;4994068;28;20040;-78
2022/11/13 07:26:44;;;;;;;17.70;13.35;;;4.50;99.90;;;;;;4996035;28;20527;-77
2022/11/13 07:29:10;;;;;;;18.45;13.30;;;4.40;99.90;;;;;;4994643;28;20104;-77
2022/11/13 07:31:36;;;;;;;16.77;13.02;;;4.40;99.90;;;;;;4993524;28;20084;-78
2022/11/13 07:34:01;;;;;;;18.27;13.77;;;4.40;99.90;;;;;;4994166;28;20039;-78
2022/11/13 07:36:27;;;;;;;19.15;13.77;;;4.40;99.90;;;;;;4991160;28;20096;-77
2022/11/13 07:38:52;;;;;;;21.90;14.07;;;4.40;99.90;;;;;;4995997;28;20042;-77
2022/11/13 07:41:18;;;;;;;18.35;13.48;;;4.40;99.90;;;;;;4996346;28;20042;-79
2022/11/13 07:43:43;;;;;;;19.88;13.93;;;4.50;99.90;;;;;;4996044;28;20034;-78
2022/11/13 07:46:10;;;;;;;19.08;13.40;;;4.50;99.90;;;;;;4996288;28;20046;-78
2022/11/13 07:48:35;;;;;;;19.65;13.55;;;4.60;99.90;;;;;;4994047;28;20034;-78
2022/11/13 07:51:01;;;;;;;17.77;13.75;;;4.60;99.90;;;;;;4995565;28;20052;-78
2022/11/13 07:53:27;;;;;;;18.20;13.23;;;4.60;99.90;;;;;;4989711;28;20034;-78
2022/11/13 07:55:53;;;;;;;19.45;14.32;;;4.70;99.90;;;;;;5005338;28;20038;-78
2022/11/13 07:58:18;;;;;;;19.55;13.93;;;4.70;99.90;;;;;;4993104;28;20045;-78
2022/11/13 08:00:44;;;;;;;18.80;13.68;;;4.80;99.90;;;;;;4992646;28;20037;-78
2022/11/13 08:03:14;;;;;;;20.27;14.43;;;4.80;99.90;;;;;;4994528;28;20060;-78
2022/11/13 08:05:40;;;;;;;19.35;14.32;;;4.90;99.90;;;;;;4992443;28;20038;-78
2022/11/13 08:08:06;;;;;;;19.40;14.48;;;5.00;99.90;;;;;;4992661;28;20113;-78
2022/11/13 08:10:32;;;;;;;20.23;14.48;;;5.00;99.90;;;;;;4992860;28;20438;-77
2022/11/13 08:13:07;;;;;;;20.80;14.80;;;5.10;99.90;;;;;;4992876;28;20041;-78
2022/11/13 08:15:33;;;;;;;20.42;14.50;;;5.20;99.90;;;;;;4995237;28;20042;-78
2022/11/13 08:18:00;;;;;;;19.00;15.20;;;5.20;99.90;;;;;;4979254;28;20033;-78
2022/11/13 08:20:27;;;;;;;19.23;14.73;;;5.30;99.90;;;;;;4994419;28;20041;-77
2022/11/13 08:22:59;;;;;;;18.58;14.38;;;5.40;99.90;;;;;;4994953;28;20073;-77
2022/11/13 08:25:26;;;;;;;20.77;15.13;;;5.40;99.90;;;;;;4994671;28;20085;-77
2022/11/13 08:27:52;;;;;;;19.92;15.07;;;5.50;99.90;;;;;;4994624;28;20096;-79
2022/11/13 08:30:19;;;;;;;24.85;15.00;;;5.60;99.90;;;;;;4994979;28;20041;-78
2022/11/13 08:32:45;;;;;;;20.75;14.75;;;5.70;99.90;;;;;;4993634;28;20442;-77
2022/11/13 08:35:11;;;;;;;21.55;14.95;;;5.80;99.90;;;;;;4992567;28;20049;-78
2022/11/13 08:37:36;;;;;;;19.45;15.05;;;5.80;99.90;;;;;;4994029;28;20391;-77
2022/11/13 08:40:02;;;;;;;19.90;14.82;;;5.90;99.90;;;;;;4994491;28;20550;-78
2022/11/13 08:42:28;;;;;;;22.00;15.93;;;6.00;99.90;;;;;;4977060;28;20535;-78
2022/11/13 08:44:53;;;;;;;19.67;14.90;;;6.10;99.90;;;;;;4992485;28;20030;-77
2022/11/13 08:47:19;;;;;;;21.60;14.75;;;6.20;99.90;;;;;;4994004;28;20188;-77
2022/11/13 08:49:44;;;;;;;20.20;14.77;;;6.30;99.90;;;;;;4991091;28;20140;-77
2022/11/13 08:52:10;;;;;;;19.88;15.15;;;6.30;99.90;;;;;;4990153;28;20041;-78
2022/11/13 08:54:35;;;;;;;21.48;15.48;;;6.40;99.90;;;;;;4993198;28;20086;-77
2022/11/13 08:57:01;;;;;;;19.92;14.75;;;6.40;99.90;;;;;;4984451;28;20030;-77
2022/11/13 08:59:27;;;;;;;21.20;15.80;;;6.50;99.90;;;;;;5007974;28;20057;-78
2022/11/13 09:01:58;;;;;;;19.45;15.50;;;6.60;99.90;;;;;;4990017;28;20464;-78
2022/11/13 09:04:25;;;;;;;19.48;15.88;;;6.60;99.90;;;;;;4989408;28;20053;-77
2022/11/13 09:06:51;;;;;;;18.92;14.88;;;6.60;99.90;;;;;;4993034;28;20065;-77
2022/11/13 09:09:18;;;;;;;20.95;15.73;;;6.70;99.90;;;;;;4990257;28;20046;-78
2022/11/13 09:11:43;;;;;;;18.80;14.52;;;6.70;99.90;;;;;;4986517;28;20104;-77
2022/11/13 09:14:09;;;;;;;19.27;15.02;;;6.80;99.90;;;;;;4987278;28;20061;-78
2022/11/13 09:16:34;;;;;;;19.13;14.85;;;6.90;99.90;;;;;;5008036;28;20041;-77
2022/11/13 09:19:00;;;;;;;21.38;14.73;;;6.90;99.90;;;;;;4990072;28;20136;-77
2022/11/13 09:21:26;;;;;;;19.40;14.98;;;7.00;99.90;;;;;;4989542;28;20095;-77
2022/11/13 09:23:51;;;;;;;19.17;15.00;;;7.10;99.90;;;;;;4990744;28;20042;-77
2022/11/13 09:26:17;;;;;;;20.60;15.13;;;7.10;99.90;;;;;;4989769;28;20108;-79
2022/11/13 09:28:42;;;;;;;21.73;15.43;;;7.20;99.90;;;;;;5006226;28;20037;-77
2022/11/13 09:31:08;;;;;;;19.58;14.23;;;7.20;99.90;;;;;;4989179;28;20118;-76
2022/11/13 09:33:34;;;;;;;20.83;15.38;;;7.30;99.90;;;;;;4990869;28;20119;-76
2022/11/13 09:36:00;;;;;;;20.00;15.40;;;7.40;99.90;;;;;;5003194;28;20041;-77
2022/11/13 09:38:25;;;;;;;21.48;14.75;;;7.50;99.90;;;;;;4989125;28;20033;-77
2022/11/13 09:41:07;;;;;;;20.70;14.85;;;7.60;99.90;;;;;;4987947;28;20041;-76
2022/11/13 09:43:48;;;;;;;18.30;14.48;;;7.70;99.90;;;;;;4988504;28;20060;-76
2022/11/13 09:46:31;;;;;;;20.13;14.30;;;7.80;99.90;;;;;;4990328;28;20030;-77
2022/11/13 09:49:13;;;;;;;19.52;14.95;;;7.90;99.90;;;;;;4988203;28;20041;-77
2022/11/13 09:51:39;;;;;;;20.63;14.40;;;8.10;99.90;;;;;;4988254;28;20065;-77
2022/11/13 09:54:10;;;;;;;21.15;14.90;;;8.20;99.90;;;;;;4972986;28;20045;-76
2022/11/13 09:56:43;;;;;;;19.20;14.60;;;8.20;99.90;;;;;;4974895;28;20153;-76
2022/11/13 09:59:43;;;;;;;18.08;13.63;;;8.30;99.90;;;;;;4989299;28;20042;-76
2022/11/13 10:02:26;;;;;;;21.15;14.75;;;8.50;99.90;;;;;;4988884;28;20042;-77
2022/11/13 10:05:13;;;;;;;18.33;13.43;;;8.60;99.90;;;;;;4990216;28;20042;-77
2022/11/13 10:07:46;;;;;;;17.30;14.32;;;8.70;99.90;;;;;;4987948;28;20073;-77
2022/11/13 10:10:35;;;;;;;15.55;12.85;;;8.80;99.90;;;;;;4993481;28;20109;-77
2022/11/13 10:13:03;;;;;;;17.02;13.55;;;8.80;99.90;;;;;;4992583;28;20046;-77
2022/11/13 10:15:30;;;;;;;17.60;13.77;;;8.90;99.90;;;;;;4986715;28;20033;-76
2022/11/13 10:18:01;;;;;;;18.55;13.55;;;9.00;99.90;;;;;;5004948;28;20048;-77
2022/11/13 10:20:47;;;;;;;17.77;13.70;;;9.10;99.90;;;;;;4994559;28;20048;-77
2022/11/13 10:23:37;;;;;;;16.75;13.50;;;9.20;99.90;;;;;;4993712;28;20076;-76
2022/11/13 10:26:16;;;;;;;16.48;12.82;;;9.40;99.90;;;;;;4995077;28;20131;-76
2022/11/13 10:28:41;;;;;;;16.08;12.98;;;9.50;99.90;;;;;;4995798;28;20109;-76
2022/11/13 10:31:11;;;;;;;16.65;12.35;;;9.60;99.90;;;;;;4997834;28;20442;-77
2022/11/13 10:33:37;;;;;;;15.98;12.70;;;9.60;99.90;;;;;;4995452;28;20048;-76
2022/11/13 10:36:26;;;;;;;15.15;12.25;;;9.60;99.90;;;;;;4996584;28;20399;-77
2022/11/13 10:38:57;;;;;;;13.90;11.45;;;9.60;99.90;;;;;;4993624;28;20485;-77
2022/11/13 10:41:22;;;;;;;14.00;11.48;;;9.70;99.90;;;;;;5010736;28;20050;-76
2022/11/13 10:43:57;;;;;;;12.48;10.55;;;9.80;99.90;;;;;;4996130;28;20404;-76
2022/11/13 10:46:28;;;;;;;14.27;11.13;;;9.80;99.90;;;;;;4990699;28;20041;-77
2022/11/13 10:48:55;;;;;;;14.73;11.27;;;9.90;99.90;;;;;;4993035;28;20029;-76
2022/11/13 10:51:27;;;;;;;13.70;11.00;;;9.80;99.90;;;;;;4995393;28;20038;-76
2022/11/13 10:53:53;;;;;;;13.70;10.80;;;9.80;99.90;;;;;;4994459;28;20040;-76
2022/11/13 10:56:32;;;;;;;16.77;11.38;;;9.80;99.90;;;;;;4995952;28;20053;-76
2022/11/13 10:59:10;;;;;;;14.60;11.55;;;9.90;99.90;;;;;;4995429;28;20044;-76
2022/11/13 11:01:36;;;;;;;13.38;11.43;;;9.80;99.90;;;;;;4993601;28;20609;-76
2022/11/13 11:04:04;;;;;;;14.63;11.55;;;9.80;99.90;;;;;;4994818;28;20056;-76
2022/11/13 11:06:34;;;;;;;15.27;12.07;;;9.80;99.90;;;;;;4995818;28;20121;-76
2022/11/13 11:09:26;;;;;;;13.57;11.23;;;9.80;99.90;;;;;;4996107;28;20173;-76
2022/11/13 11:12:15;;;;;;;14.38;11.23;;;9.90;99.90;;;;;;4979021;28;20407;-76
2022/11/13 11:15:13;;;;;;;14.50;11.80;;;10.00;99.90;;;;;;5009217;28;20062;-77
2022/11/13 11:17:53;;;;;;;13.65;11.25;;;10.10;99.90;;;;;;4992407;28;20050;-77
2022/11/13 11:20:34;;;;;;;15.70;11.27;;;10.30;99.90;;;;;;4994999;28;20038;-76
2022/11/13 11:23:30;;;;;;;14.55;11.05;;;10.40;99.90;;;;;;4993890;28;20495;-77
2022/11/13 11:26:09;;;;;;;13.02;10.93;;;10.60;99.90;;;;;;4993518;28;20569;-76
2022/11/13 11:28:52;;;;;;;14.52;10.82;;;10.70;99.90;;;;;;4990024;28;20037;-76
2022/11/13 11:31:40;;;;;;;14.48;10.95;;;10.80;99.90;;;;;;4992339;28;20037;-76
2022/11/13 11:34:18;;;;;;;13.77;11.05;;;10.90;99.90;;;;;;4994187;28;20045;-76
2022/11/13 11:37:02;;;;;;;12.32;10.23;;;11.00;99.90;;;;;;4991684;28;20120;-76
2022/11/13 11:39:41;;;;;;;12.70;9.93;;;11.10;99.90;;;;;;4994626;28;20042;-76
2022/11/13 11:42:29;;;;;;;12.88;10.45;;;11.20;99.90;;;;;;4996042;28;20080;-76
2022/11/13 11:45:22;;;;;;;11.13;9.55;;;11.30;99.90;;;;;;4993198;28;20073;-77
2022/11/13 11:47:48;;;;;;;16.60;10.45;;;11.50;99.90;;;;;;4988886;28;20626;-76
2022/11/13 11:50:21;;;;;;;12.30;9.80;;;11.60;99.90;;;;;;4993956;28;20095;-76
2022/11/13 11:53:03;;;;;;;12.80;9.73;;;11.70;99.90;;;;;;4998230;28;20491;-76
2022/11/13 11:55:52;;;;;;;12.02;9.35;;;11.70;99.90;;;;;;5013459;28;20046;-77
2022/11/13 11:58:58;;;;;;;12.65;10.20;;;11.80;99.90;;;;;;4992211;28;20041;-76
2022/11/13 12:01:43;;;;;;;10.93;9.25;;;11.90;99.90;;;;;;4995016;28;20057;-76
2022/11/13 12:04:30;;;;;;;13.80;9.70;;;12.00;99.90;;;;;;4995172;28;20114;-76
2022/11/13 12:07:37;;;;;;;11.93;9.73;;;12.00;99.90;;;;;;4995421;28;20092;-76
2022/11/13 12:10:26;;;;;;;14.40;10.20;;;12.20;99.90;;;;;;4954761;28;20516;-76
2022/11/13 12:13:29;;;;;;;10.20;8.90;;;12.20;99.90;;;;;;4989152;28;20072;-76
2022/11/13 12:16:08;;;;;;;12.05;9.70;;;12.30;99.90;;;;;;4992838;28;20119;-76
2022/11/13 12:19:03;;;;;;;11.27;9.25;;;12.40;99.90;;;;;;4995121;28;20073;-76
2022/11/13 12:22:11;;;;;;;11.48;9.43;;;12.40;99.90;;;;;;4992380;28;20081;-76
2022/11/13 12:24:46;;;;;;;10.73;8.68;;;12.40;99.90;;;;;;4994294;28;20038;-76
2022/11/13 12:27:46;;;;;;;11.95;8.60;;;12.40;99.90;;;;;;4993701;28;20042;-76
2022/11/13 12:30:20;;;;;;;10.98;9.02;;;12.40;99.90;;;;;;5008323;28;20037;-76
2022/11/13 12:32:54;;;;;;;11.90;8.77;;;12.40;99.90;;;;;;4993606;28;20042;-76
2022/11/13 12:35:23;;;;;;;11.60;8.82;;;12.40;99.90;;;;;;4992143;28;20065;-76
2022/11/13 12:38:21;;;;;;;12.35;9.10;;;12.40;99.90;;;;;;4989856;28;20048;-76
2022/11/13 12:41:10;;;;;;;13.38;9.75;;;12.50;99.90;;;;;;4990016;28;20169;-76
2022/11/13 12:43:50;;;;;;;12.52;9.20;;;12.70;99.90;;;;;;4991197;28;20036;-76
2022/11/13 12:46:16;;;;;;;11.68;8.90;;;12.80;99.90;;;;;;4990441;28;20049;-76
2022/11/13 12:48:44;;;;;;;10.48;8.52;;;12.80;99.90;;;;;;4994608;28;20042;-76